YM Venus — 9HCB8 — position and weather

sailwx.info

Track history (hours):
 
Tides and Currents Weather Stations Pressure Air Temp Water Temp Dewpoint Dewpoint Depression Visibility Wind Speed Wind Dir Waves Ship Positions

YM Venus

Last reported at 2015-Mar-01 09:20 UTC. Time now 2015-Mar-03 03:12 UTC.
Position N 37°35' E 024°12'.

Length 105 m; draft 6.1 m.

Type: Ship (hazmat cat B). MMSI: 215826000.

Date/timePositionNaut miles runAvg speedWind from/ knotsBaromVisibWave heightAir tempDewpointWater temp
2015-Mar-01 09:20N 37°35' E 024°12'47411.1
2015-Feb-27 14:31N 36°29' E 014°23'2913.1
2015-Feb-27 12:19N 36°38' E 013°49'  
2015-Feb-24 08:34N 36°04' W 005°19'8 0.2
2015-Feb-22 22:33N 36°11' W 005°24'1 0.2
2015-Feb-22 15:11N 36°09' W 005°24'3 5.0
2015-Feb-22 14:33N 36°06' W 005°23'1010.0
2015-Feb-22 13:34N 35°57' W 005°19'3 2.9
2015-Feb-22 12:31N 35°54' W 005°19'0 0.0
2015-Feb-22 11:31N 35°54' W 005°19'0 0.0
2015-Feb-22 10:31N 35°54' W 005°19'0 0.0
2015-Feb-22 09:31N 35°54' W 005°19'0 0.0
2015-Feb-22 08:31N 35°54' W 005°19'1 0.9
2015-Feb-22 07:34N 35°54' W 005°18'4 3.5
2015-Feb-22 06:34N 35°57' W 005°15'9 9.1
2015-Feb-22 05:33N 35°58' W 005°27'26610.2
2015-Feb-21 03:33N 38°28' W 010°02'1513.2
2015-Feb-21 02:23N 38°43' W 010°06'  
Track history (hours):
 
Tides and Currents Weather Stations Pressure Air Temp Water Temp Dewpoint Dewpoint Depression Visibility Wind Speed Wind Dir Waves Ship Positions

YM Venus

Last reported at 2015-Mar-01 09:20 UTC. Time now 2015-Mar-03 03:12 UTC.
Position N 37°35' E 024°12'.

Length 105 m; draft 6.1 m.

Type: Ship (hazmat cat B). MMSI: 215826000.

Date/timePositionNaut miles runAvg speedWind from/ knotsBaromVisibWave heightAir tempDewpointWater temp
2015-Mar-01 09:20N 37°35' E 024°12'47411.1
2015-Feb-27 14:31N 36°29' E 014°23'2913.1
2015-Feb-27 12:19N 36°38' E 013°49'  
2015-Feb-24 08:34N 36°04' W 005°19'8 0.2
2015-Feb-22 22:33N 36°11' W 005°24'1 0.2
2015-Feb-22 15:11N 36°09' W 005°24'3 5.0
2015-Feb-22 14:33N 36°06' W 005°23'1010.0
2015-Feb-22 13:34N 35°57' W 005°19'3 2.9
2015-Feb-22 12:31N 35°54' W 005°19'0 0.0
2015-Feb-22 11:31N 35°54' W 005°19'0 0.0
2015-Feb-22 10:31N 35°54' W 005°19'0 0.0
2015-Feb-22 09:31N 35°54' W 005°19'0 0.0
2015-Feb-22 08:31N 35°54' W 005°19'1 0.9
2015-Feb-22 07:34N 35°54' W 005°18'4 3.5
2015-Feb-22 06:34N 35°57' W 005°15'9 9.1
2015-Feb-22 05:33N 35°58' W 005°27'26610.2
2015-Feb-21 03:33N 38°28' W 010°02'1513.2
2015-Feb-21 02:23N 38°43' W 010°06'  

Dump ship's entire track history